Time;durP1;ratioP1;P1;durP2;ratioP2;P2;SDS_P1;SDS_P2;PMS_P1;PMS_P2;Temp;Humidity;BMP_temperature;BMP_pressure;BME280_temperature;BME280_humidity;BME280_pressure;Samples;Min_cycle;Max_cycle;Signal;HPM_P1;HPM_P2
2022/09/28 00:00:26;;;;;;;7.70;3.20;;;;;;;-145.01;100.00;64805.59;5054487;28;20017;-53
2022/09/28 00:02:56;;;;;;;6.95;3.15;;;;;;;-145.01;100.00;64805.59;5056091;28;20020;-53
2022/09/28 00:05:27;;;;;;;10.57;3.30;;;;;;;-145.01;100.00;64805.59;5051261;28;20495;-53
2022/09/28 00:07:53;;;;;;;8.63;3.22;;;;;;;-145.01;100.00;64805.59;5051798;28;20029;-53
2022/09/28 00:10:21;;;;;;;5.40;3.28;;;;;;;-145.01;100.00;64805.59;5050399;28;20575;-54
2022/09/28 00:12:48;;;;;;;6.60;3.08;;;;;;;-145.01;100.00;64805.59;5048301;28;20065;-53
2022/09/28 00:15:13;;;;;;;10.75;3.45;;;;;;;-145.01;100.00;64805.59;5054396;28;20309;-53
2022/09/28 00:17:38;;;;;;;8.30;3.17;;;;;;;-145.01;100.00;64805.59;5054001;28;20403;-57
2022/09/28 00:20:04;;;;;;;10.15;3.83;;;;;;;-145.01;100.00;64805.59;5052510;28;20029;-54
2022/09/28 00:22:30;;;;;;;4.70;2.97;;;;;;;-145.01;100.00;64805.59;5052809;28;20459;-54
2022/09/28 00:24:55;;;;;;;8.50;3.33;;;;;;;-145.01;100.00;64805.59;5048607;28;20155;-52
2022/09/28 00:27:21;;;;;;;6.15;3.30;;;;;;;-145.01;100.00;64805.59;5046831;28;20379;-54
2022/09/28 00:29:46;;;;;;;6.53;3.22;;;;;;;-145.01;100.00;64805.59;5047786;28;20115;-54
2022/09/28 00:32:12;;;;;;;7.53;4.13;;;;;;;-145.01;100.00;64805.59;5048444;28;20059;-53
2022/09/28 00:34:42;;;;;;;6.43;3.35;;;;;;;-145.01;100.00;64805.59;5048179;28;20036;-53
2022/09/28 00:37:07;;;;;;;6.95;3.45;;;;;;;-145.01;100.00;64805.59;5048173;28;20021;-53
2022/09/28 00:39:34;;;;;;;7.15;3.47;;;;;;;-145.01;100.00;64805.59;5053745;28;20137;-56
2022/09/28 00:42:00;;;;;;;9.45;3.55;;;;;;;-145.01;100.00;64805.59;5057444;28;20094;-52
2022/09/28 00:44:26;;;;;;;6.38;3.50;;;;;;;-145.01;100.00;64805.59;5055446;28;20032;-54
2022/09/28 00:46:51;;;;;;;6.13;3.40;;;;;;;-145.01;100.00;64805.59;5057571;28;20033;-53
2022/09/28 00:49:16;;;;;;;5.88;3.08;;;;;;;-145.01;100.00;64805.59;5055978;28;20029;-54
2022/09/28 00:51:42;;;;;;;6.20;3.72;;;;;;;-145.01;100.00;64805.59;5053920;28;20047;-53
2022/09/28 00:54:07;;;;;;;5.20;3.10;;;;;;;-145.01;100.00;64805.59;5089215;28;20107;-53
2022/09/28 00:56:33;;;;;;;9.57;3.83;;;;;;;-145.01;100.00;64805.59;5067392;28;20411;-54
2022/09/28 00:58:59;;;;;;;6.43;3.45;;;;;;;-145.01;100.00;64805.59;5061965;28;20021;-54
2022/09/28 01:01:25;;;;;;;6.78;3.42;;;;;;;-145.01;100.00;64805.59;5093097;28;20044;-55
2022/09/28 01:03:52;;;;;;;7.18;2.92;;;;;;;-145.01;100.00;64805.59;5055271;28;20119;-52
2022/09/28 01:06:21;;;;;;;7.13;3.22;;;;;;;-145.01;100.00;64805.59;5050388;28;20376;-54
2022/09/28 01:08:49;;;;;;;9.57;3.03;;;;;;;-145.01;100.00;64805.59;5051630;28;20379;-52
2022/09/28 01:11:15;;;;;;;6.90;3.42;;;;;;;-145.01;100.00;64805.59;5070642;28;20032;-54
2022/09/28 01:13:41;;;;;;;10.63;3.22;;;;;;;-145.01;100.00;64805.59;5056853;28;20078;-54
2022/09/28 01:16:30;;;;;;;5.35;2.75;;;;;;;-145.01;100.00;64805.59;5054276;28;20064;-54
2022/09/28 01:19:02;;;;;;;4.45;2.75;;;;;;;-145.01;100.00;64805.59;5054907;28;20025;-54
2022/09/28 01:21:27;;;;;;;5.85;2.50;;;;;;;-145.01;100.00;64805.59;5067180;28;20036;-53
2022/09/28 01:24:10;;;;;;;8.10;2.80;;;;;;;-145.01;100.00;64805.59;5051138;28;20025;-53
2022/09/28 01:26:49;;;;;;;5.78;2.72;;;;;;;-145.01;100.00;64805.59;5057639;28;20079;-55
2022/09/28 01:29:34;;;;;;;7.35;2.65;;;;;;;-145.01;100.00;64805.59;5054415;28;20024;-54
2022/09/28 01:32:22;;;;;;;6.20;2.30;;;;;;;-145.01;100.00;64805.59;5051763;28;20158;-54
2022/09/28 01:34:56;;;;;;;4.07;2.55;;;;;;;-145.01;100.00;64805.59;5034622;28;20036;-55
2022/09/28 01:37:26;;;;;;;5.28;2.50;;;;;;;-145.01;100.00;64805.59;5049790;28;20120;-56
2022/09/28 01:39:51;;;;;;;3.28;2.22;;;;;;;-145.01;100.00;64805.59;5069895;28;20042;-55
2022/09/28 01:42:26;;;;;;;3.70;2.22;;;;;;;-145.01;100.00;64805.59;5054243;28;20033;-55
2022/09/28 01:44:52;;;;;;;4.32;2.53;;;;;;;-145.01;100.00;64805.59;5032441;28;20793;-54
2022/09/28 01:47:19;;;;;;;2.67;1.85;;;;;;;-145.01;100.00;64805.59;5060209;28;20082;-55
2022/09/28 01:49:51;;;;;;;5.25;1.80;;;;;;;-145.01;100.00;64805.59;5032873;28;20028;-56
2022/09/28 01:52:19;;;;;;;2.92;1.85;;;;;;;-145.01;100.00;64805.59;5057587;28;20150;-55
2022/09/28 01:54:49;;;;;;;5.05;2.00;;;;;;;-145.01;100.00;64805.59;5047984;28;20068;-55
2022/09/28 01:57:27;;;;;;;4.05;1.60;;;;;;;-145.01;100.00;64805.59;5053000;28;20104;-54
2022/09/28 02:00:07;;;;;;;3.00;1.80;;;;;;;-145.01;100.00;64805.59;5055553;28;20053;-54
2022/09/28 02:02:38;;;;;;;2.10;1.60;;;;;;;-145.01;100.00;64805.59;5036503;28;20036;-54
2022/09/28 02:05:07;;;;;;;3.17;1.80;;;;;;;-145.01;100.00;64805.59;5036153;28;20037;-54
2022/09/28 02:07:38;;;;;;;3.47;1.80;;;;;;;-145.01;100.00;64805.59;5053823;28;20020;-54
2022/09/28 02:10:13;;;;;;;3.72;1.80;;;;;;;-145.01;100.00;64805.59;5050475;28;20679;-55
2022/09/28 02:12:42;;;;;;;3.65;1.58;;;;;;;-145.01;100.00;64805.59;5057067;28;20427;-55
2022/09/28 02:15:15;;;;;;;7.10;1.90;;;;;;;-145.01;100.00;64805.59;5048624;28;20025;-55
2022/09/28 02:17:41;;;;;;;4.70;2.00;;;;;;;-145.01;100.00;64805.59;5048986;28;20066;-57
2022/09/28 02:20:06;;;;;;;2.53;1.65;;;;;;;-145.01;100.00;64805.59;5048945;28;20025;-55
2022/09/28 02:22:42;;;;;;;2.22;1.73;;;;;;;-145.01;100.00;64805.59;5049486;28;20079;-58
2022/09/28 02:25:10;;;;;;;2.63;1.65;;;;;;;-145.01;100.00;64805.59;5037728;28;20073;-55
2022/09/28 02:27:42;;;;;;;2.33;1.50;;;;;;;-145.01;100.00;64805.59;5039162;28;20148;-56
2022/09/28 02:30:08;;;;;;;3.15;1.60;;;;;;;-145.01;100.00;64805.59;5051896;28;20036;-56
2022/09/28 02:32:38;;;;;;;4.05;1.67;;;;;;;-145.01;100.00;64805.59;5056856;28;20082;-55
2022/09/28 02:35:09;;;;;;;2.10;1.50;;;;;;;-145.01;100.00;64805.59;5052471;28;20023;-57
2022/09/28 02:37:35;;;;;;;2.08;1.55;;;;;;;-145.01;100.00;64805.59;5065535;28;20115;-56
2022/09/28 02:40:00;;;;;;;2.42;1.58;;;;;;;-145.01;100.00;64805.59;5054411;28;20029;-55
2022/09/28 02:42:28;;;;;;;1.77;1.40;;;;;;;-145.01;100.00;64805.59;5055993;28;20029;-55
2022/09/28 02:45:22;;;;;;;2.25;1.45;;;;;;;-145.01;100.00;64805.59;5069512;28;20062;-55
2022/09/28 02:48:09;;;;;;;3.80;1.40;;;;;;;-145.01;100.00;64805.59;5053384;28;20024;-56
2022/09/28 02:50:53;;;;;;;2.13;1.40;;;;;;;-145.01;100.00;64805.59;5056519;28;20040;-56
2022/09/28 02:53:37;;;;;;;3.38;1.77;;;;;;;-145.01;100.00;64805.59;5050860;28;20037;-56
2022/09/28 02:56:12;;;;;;;1.67;1.20;;;;;;;-145.01;100.00;64805.59;5053437;28;20028;-56
2022/09/28 02:58:46;;;;;;;1.60;1.30;;;;;;;-145.01;100.00;64805.59;5050197;28;20052;-55
2022/09/28 03:01:25;;;;;;;3.22;2.30;;;;;;;-145.01;100.00;64805.59;5056234;28;20044;-56
2022/09/28 03:03:59;;;;;;;2.53;1.48;;;;;;;-145.01;100.00;64805.59;5055536;28;20663;-57
2022/09/28 03:06:35;;;;;;;1.50;1.40;;;;;;;-145.01;100.00;64805.59;5047334;28;20106;-55
2022/09/28 03:09:07;;;;;;;2.70;1.52;;;;;;;-145.01;100.00;64805.59;5033566;28;20025;-56
2022/09/28 03:11:36;;;;;;;1.63;1.42;;;;;;;-145.01;100.00;64805.59;5065580;28;20430;-56
2022/09/28 03:14:02;;;;;;;3.00;1.50;;;;;;;-145.01;100.00;64805.59;5053309;28;20039;-55
2022/09/28 03:16:30;;;;;;;2.95;1.70;;;;;;;-145.01;100.00;64805.59;5049651;28;20021;-56
2022/09/28 03:18:56;;;;;;;2.92;1.77;;;;;;;-145.01;100.00;64805.59;5056907;28;20402;-55
2022/09/28 03:21:21;;;;;;;3.03;1.70;;;;;;;-145.01;100.00;64805.59;5050548;28;20028;-56
2022/09/28 03:23:46;;;;;;;7.32;1.67;;;;;;;-145.01;100.00;64805.59;5048236;28;20033;-55
2022/09/28 03:26:12;;;;;;;3.22;1.70;;;;;;;-145.01;100.00;64805.59;5052331;28;20063;-55
2022/09/28 03:28:37;;;;;;;6.00;1.70;;;;;;;-145.01;100.00;64805.59;5058935;28;20028;-56
2022/09/28 03:31:03;;;;;;;3.70;2.10;;;;;;;-145.01;100.00;64805.59;5061596;28;20505;-56
2022/09/28 03:33:28;;;;;;;3.13;1.70;;;;;;;-145.01;100.00;64805.59;5054281;28;20033;-54
2022/09/28 03:35:54;;;;;;;4.20;1.90;;;;;;;-145.01;100.00;64805.59;5053372;28;20028;-55
2022/09/28 03:38:19;;;;;;;4.97;1.88;;;;;;;-145.01;100.00;64805.59;5054374;28;20021;-55
2022/09/28 03:40:54;;;;;;;4.13;1.90;;;;;;;-145.01;100.00;64805.59;5048840;28;20021;-56
2022/09/28 03:43:20;;;;;;;3.85;2.10;;;;;;;-145.01;100.00;64805.59;5051169;28;20110;-56
2022/09/28 03:45:59;;;;;;;4.40;2.15;;;;;;;-145.01;100.00;64805.59;5049961;28;20100;-56
2022/09/28 03:48:34;;;;;;;2.72;1.90;;;;;;;-145.01;100.00;64805.59;5051710;28;20040;-56
2022/09/28 03:51:01;;;;;;;6.38;2.00;;;;;;;-145.01;100.00;64805.59;5058179;28;20024;-55
2022/09/28 03:53:28;;;;;;;3.42;2.50;;;;;;;-145.01;100.00;64805.59;5051561;28;20032;-55
2022/09/28 03:55:54;;;;;;;7.53;2.03;;;;;;;-145.01;100.00;64805.59;5048979;28;20029;-54
2022/09/28 03:58:19;;;;;;;3.55;2.00;;;;;;;-145.01;100.00;64805.59;5049343;28;20025;-55
2022/09/28 04:00:45;;;;;;;4.55;2.22;;;;;;;-145.01;100.00;64805.59;5048568;28;20029;-56
2022/09/28 04:03:11;;;;;;;3.40;2.17;;;;;;;-145.01;100.00;64805.59;5049351;28;20036;-54
2022/09/28 04:05:36;;;;;;;4.65;2.15;;;;;;;-145.01;100.00;64805.59;5048715;28;20041;-54
2022/09/28 04:08:01;;;;;;;3.50;2.13;;;;;;;-145.01;100.00;64805.59;5048764;28;20429;-56
2022/09/28 04:10:27;;;;;;;7.25;2.45;;;;;;;-145.01;100.00;64805.59;5086119;28;20515;-56
2022/09/28 04:12:54;;;;;;;3.03;2.10;;;;;;;-145.01;100.00;64805.59;5052685;28;20744;-56
2022/09/28 04:15:19;;;;;;;10.23;2.10;;;;;;;-145.01;100.00;64805.59;5060141;28;20105;-56
2022/09/28 04:17:45;;;;;;;3.15;1.85;;;;;;;-145.01;100.00;64805.59;5056132;28;20920;-55
2022/09/28 04:20:10;;;;;;;2.80;1.90;;;;;;;-145.01;100.00;64805.59;5058088;28;20025;-57
2022/09/28 04:22:39;;;;;;;3.35;1.83;;;;;;;-145.01;100.00;64805.59;5052611;28;20029;-53
2022/09/28 04:25:04;;;;;;;3.00;1.90;;;;;;;-145.01;100.00;64805.59;5057720;28;20028;-52
2022/09/28 04:30:14;;;;;;;4.13;1.80;;;;;;;-145.01;100.00;64805.59;5063256;28;20067;-53
2022/09/28 04:32:39;;;;;;;4.22;1.80;;;;;;;-145.01;100.00;64805.59;5055900;28;20637;-54
2022/09/28 04:35:06;;;;;;;3.78;1.92;;;;;;;-145.01;100.00;64805.59;5060919;28;20083;-54
2022/09/28 04:37:32;;;;;;;3.97;1.80;;;;;;;-145.01;100.00;64805.59;5053584;28;20580;-53
2022/09/28 04:39:58;;;;;;;2.78;1.90;;;;;;;-145.01;100.00;64805.59;5051672;28;20032;-56
2022/09/28 04:42:23;;;;;;;3.40;1.95;;;;;;;-145.01;100.00;64805.59;5057963;28;20032;-55
2022/09/28 04:44:48;;;;;;;4.90;1.80;;;;;;;-145.01;100.00;64805.59;5050728;28;20021;-55
2022/09/28 04:47:14;;;;;;;3.75;2.00;;;;;;;-145.01;100.00;64805.59;5060727;28;20033;-55
2022/09/28 04:49:40;;;;;;;3.33;1.90;;;;;;;-145.01;100.00;64805.59;5053927;28;20033;-55
2022/09/28 04:52:05;;;;;;;2.78;1.90;;;;;;;-145.01;100.00;64805.59;5057847;28;20082;-55
2022/09/28 04:54:30;;;;;;;4.68;2.35;;;;;;;-145.01;100.00;64805.59;5052289;28;20048;-55
2022/09/28 04:56:56;;;;;;;7.60;2.55;;;;;;;-145.01;100.00;64805.59;5051124;28;20029;-55
2022/09/28 04:59:22;;;;;;;3.30;2.25;;;;;;;-145.01;100.00;64805.59;5056192;28;20039;-55
2022/09/28 05:01:48;;;;;;;4.43;2.50;;;;;;;-145.01;100.00;64805.59;5059209;28;20040;-54
2022/09/28 05:04:13;;;;;;;7.72;3.03;;;;;;;-145.01;100.00;64805.59;5058287;28;20025;-55
2022/09/28 05:06:39;;;;;;;13.68;3.53;;;;;;;-145.01;100.00;64805.59;5058355;28;20468;-54
2022/09/28 05:09:04;;;;;;;7.15;3.38;;;;;;;-145.01;100.00;64805.59;5033159;28;20383;-55
2022/09/28 05:11:30;;;;;;;5.60;3.10;;;;;;;-145.01;100.00;64805.59;5055848;28;20112;-55
2022/09/28 05:13:55;;;;;;;5.43;2.80;;;;;;;-145.01;100.00;64805.59;5057510;28;20039;-54
2022/09/28 05:16:21;;;;;;;5.57;2.80;;;;;;;-145.01;100.00;64805.59;5051624;28;20032;-54
2022/09/28 05:18:46;;;;;;;4.47;2.75;;;;;;;-145.01;100.00;64805.59;5058006;28;20035;-55
2022/09/28 05:21:12;;;;;;;6.03;2.85;;;;;;;-145.01;100.00;64805.59;5061275;28;20028;-55
2022/09/28 05:23:38;;;;;;;3.78;2.60;;;;;;;-145.01;100.00;64805.59;5056356;28;20040;-55
2022/09/28 05:26:04;;;;;;;7.80;3.40;;;;;;;-145.01;100.00;64805.59;5056940;28;20160;-54
2022/09/28 05:28:30;;;;;;;7.28;3.20;;;;;;;-145.01;100.00;64805.59;5057477;28;20132;-55
2022/09/28 05:30:59;;;;;;;5.70;2.88;;;;;;;-145.01;100.00;64805.59;5056621;28;20040;-55
2022/09/28 05:33:25;;;;;;;5.15;2.95;;;;;;;-145.01;100.00;64805.59;5056097;28;20028;-54
2022/09/28 05:35:51;;;;;;;6.05;2.85;;;;;;;-145.01;100.00;64805.59;5054960;28;20178;-55
2022/09/28 05:38:16;;;;;;;5.30;2.92;;;;;;;-145.01;100.00;64805.59;5054273;28;20047;-54
2022/09/28 05:40:42;;;;;;;6.65;2.90;;;;;;;-145.01;100.00;64805.59;5056092;28;20056;-56
2022/09/28 05:43:07;;;;;;;4.22;2.78;;;;;;;-145.01;100.00;64805.59;5056404;28;20388;-55
2022/09/28 05:45:33;;;;;;;6.40;2.95;;;;;;;-145.01;100.00;64805.59;5050966;28;20431;-55
2022/09/28 05:47:59;;;;;;;7.43;3.00;;;;;;;-145.01;100.00;64805.59;5051351;28;20427;-55
2022/09/28 05:50:25;;;;;;;7.10;3.40;;;;;;;-145.01;100.00;64805.59;5061214;28;20390;-55
2022/09/28 05:53:07;;;;;;;7.28;3.47;;;;;;;-145.01;100.00;64805.59;5053797;28;20456;-55
2022/09/28 05:55:32;;;;;;;6.43;3.30;;;;;;;-145.01;100.00;64805.59;5063314;28;20112;-54
2022/09/28 05:57:58;;;;;;;10.88;4.00;;;;;;;-145.01;100.00;64805.59;5056872;28;20097;-55
2022/09/28 06:00:25;;;;;;;10.55;4.47;;;;;;;-145.01;100.00;64805.59;5057608;28;20029;-55
2022/09/28 06:03:00;;;;;;;5.03;3.00;;;;;;;-145.01;100.00;64805.59;5054810;28;20471;-56
2022/09/28 06:05:27;;;;;;;5.10;2.80;;;;;;;-145.01;100.00;64805.59;5050772;28;20064;-55
2022/09/28 06:07:55;;;;;;;5.25;2.75;;;;;;;-145.01;100.00;64805.59;5052115;28;20111;-56
2022/09/28 06:10:22;;;;;;;7.32;2.30;;;;;;;-145.01;100.00;64805.59;5054074;28;20036;-55
2022/09/28 06:12:51;;;;;;;5.40;2.55;;;;;;;-145.01;100.00;64805.59;5055827;28;20017;-54
2022/09/28 06:15:16;;;;;;;5.07;2.50;;;;;;;-145.01;100.00;64805.59;5055388;28;20033;-54
2022/09/28 06:17:42;;;;;;;3.88;2.20;;;;;;;-145.01;100.00;64805.59;5027641;28;20082;-54
2022/09/28 06:20:09;;;;;;;4.65;2.03;;;;;;;-145.01;100.00;64805.59;5050716;28;20033;-55
2022/09/28 06:22:35;;;;;;;5.45;2.20;;;;;;;-145.01;100.00;64805.59;5060556;28;20596;-55
2022/09/28 06:25:00;;;;;;;3.80;2.38;;;;;;;-145.01;100.00;64805.59;5053314;28;20045;-55
2022/09/28 06:27:26;;;;;;;5.35;2.20;;;;;;;-145.01;100.00;64805.59;5055651;28;20025;-57
2022/09/28 06:29:52;;;;;;;5.32;2.88;;;;;;;-145.01;100.00;64805.59;5050157;28;20463;-55
2022/09/28 06:32:18;;;;;;;5.53;2.80;;;;;;;-145.01;100.00;64805.59;5053634;28;20071;-55
2022/09/28 06:34:43;;;;;;;9.20;3.00;;;;;;;-145.01;100.00;64805.59;5056871;28;20032;-57
2022/09/28 06:37:09;;;;;;;9.20;3.00;;;;;;;-145.01;100.00;64805.59;5056081;28;20528;-56
2022/09/28 06:39:34;;;;;;;4.90;2.60;;;;;;;-145.01;100.00;64805.59;5050086;28;20037;-56
2022/09/28 06:42:02;;;;;;;6.85;2.42;;;;;;;-145.01;100.00;64805.59;5054684;28;20709;-56
2022/09/28 06:44:28;;;;;;;6.28;2.60;;;;;;;-145.01;100.00;64805.59;5060616;28;20036;-55
2022/09/28 06:46:54;;;;;;;3.97;2.40;;;;;;;-145.01;100.00;64805.59;5056863;28;20039;-56
2022/09/28 06:49:20;;;;;;;5.35;2.38;;;;;;;-145.01;100.00;64805.59;5053904;28;20024;-56
2022/09/28 06:51:46;;;;;;;6.57;2.67;;;;;;;-145.01;100.00;64805.59;5055669;28;20055;-56
2022/09/28 06:54:11;;;;;;;6.60;2.40;;;;;;;-145.01;100.00;64805.59;5049768;28;20043;-55
2022/09/28 06:56:36;;;;;;;7.25;2.35;;;;;;;-145.01;100.00;64805.59;5055433;28;20033;-57
2022/09/28 06:59:02;;;;;;;6.82;2.47;;;;;;;-145.01;100.00;64805.59;5056173;28;20075;-55
2022/09/28 07:01:27;;;;;;;5.28;2.90;;;;;;;-145.01;100.00;64805.59;5054608;28;20037;-55
2022/09/28 07:03:53;;;;;;;6.13;2.38;;;;;;;-145.01;100.00;64805.59;5053662;28;20055;-55
2022/09/28 07:06:19;;;;;;;8.25;2.47;;;;;;;-145.01;100.00;64805.59;5056203;28;20052;-55
2022/09/28 07:08:45;;;;;;;5.22;2.35;;;;;;;-145.01;100.00;64805.59;5050664;28;20036;-56
2022/09/28 07:11:11;;;;;;;5.32;2.50;;;;;;;-145.01;100.00;64805.59;5048582;28;20036;-56
2022/09/28 07:13:36;;;;;;;7.82;2.22;;;;;;;-145.01;100.00;64805.59;5049026;28;20508;-57
2022/09/28 07:16:02;;;;;;;4.72;2.03;;;;;;;-145.01;100.00;64805.59;5048992;28;20029;-56
2022/09/28 07:18:28;;;;;;;3.97;2.08;;;;;;;-145.01;100.00;64805.59;5049187;28;20135;-55
2022/09/28 07:20:57;;;;;;;5.65;2.00;;;;;;;-145.01;100.00;64805.59;5049433;28;20029;-55
2022/09/28 07:23:23;;;;;;;7.13;2.03;;;;;;;-145.01;100.00;64805.59;5053913;28;20123;-55
2022/09/28 07:25:49;;;;;;;4.30;2.00;;;;;;;-145.01;100.00;64805.59;5060046;28;20099;-55
2022/09/28 07:28:15;;;;;;;12.75;2.50;;;;;;;-145.01;100.00;64805.59;5055519;28;20764;-55
2022/09/28 07:30:43;;;;;;;9.13;2.10;;;;;;;-145.01;100.00;64805.59;5048903;28;20642;-55
2022/09/28 07:33:09;;;;;;;4.45;1.85;;;;;;;-145.01;100.00;64805.59;5050521;28;20028;-56
2022/09/28 07:35:34;;;;;;;13.13;2.33;;;;;;;-145.01;100.00;64805.59;5064483;28;20048;-57
2022/09/28 07:38:04;;;;;;;4.60;1.77;;;;;;;-145.01;100.00;64805.59;5051522;28;20025;-55
2022/09/28 07:43:19;;;;;;;5.00;1.55;;;;;;;-145.01;100.00;64805.59;5052537;28;20593;-55
2022/09/28 07:45:44;;;;;;;2.67;1.20;;;;;;;-145.01;100.00;64805.59;5056938;28;20037;-56
2022/09/28 07:48:10;;;;;;;4.13;1.67;;;;;;;-145.01;100.00;64805.59;5048942;28;20037;-56
2022/09/28 07:50:35;;;;;;;4.75;1.67;;;;;;;-145.01;100.00;64805.59;5047322;28;20161;-56
2022/09/28 07:53:00;;;;;;;2.30;1.40;;;;;;;-145.01;100.00;64805.59;5051994;28;20024;-57
2022/09/28 07:55:26;;;;;;;2.88;1.45;;;;;;;-145.01;100.00;64805.59;5056217;28;20029;-55
2022/09/28 07:57:58;;;;;;;2.85;1.15;;;;;;;-145.01;100.00;64805.59;5054120;28;20028;-55
2022/09/28 08:00:23;;;;;;;5.28;1.55;;;;;;;-145.01;100.00;64805.59;5047828;28;20028;-55
2022/09/28 08:02:49;;;;;;;2.22;1.13;;;;;;;-145.01;100.00;64805.59;5048277;28;20025;-57
2022/09/28 08:05:14;;;;;;;1.13;1.00;;;;;;;-145.01;100.00;64805.59;5012213;28;1217423;-55
2022/09/28 08:07:42;;;;;;;1.98;1.23;;;;;;;-145.01;100.00;64805.59;5049028;28;20040;-56
2022/09/28 08:10:07;;;;;;;2.70;1.17;;;;;;;-145.01;100.00;64805.59;5053533;28;20116;-55
2022/09/28 08:12:33;;;;;;;2.22;1.45;;;;;;;-145.01;100.00;64805.59;5058973;28;20056;-56
2022/09/28 08:14:59;;;;;;;3.08;1.73;;;;;;;-145.01;100.00;64805.59;5047283;28;20029;-56
2022/09/28 08:17:24;;;;;;;1.98;0.77;;;;;;;-145.01;100.00;64805.59;5054737;28;20025;-56
2022/09/28 08:22:33;;;;;;;2.58;1.02;;;;;;;-145.01;100.00;64805.59;5082734;28;20106;-57
2022/09/28 08:25:00;;;;;;;2.80;1.15;;;;;;;-145.01;100.00;64805.59;5052828;28;20025;-56
2022/09/28 08:27:25;;;;;;;2.40;1.17;;;;;;;-145.01;100.00;64805.59;5063153;28;20028;-57
2022/09/28 08:29:51;;;;;;;1.38;1.02;;;;;;;-145.01;100.00;64805.59;5048299;28;20604;-55
2022/09/28 08:32:17;;;;;;;2.22;1.10;;;;;;;-145.01;100.00;64805.59;5053194;28;20021;-55
2022/09/28 08:34:43;;;;;;;1.48;1.00;;;;;;;-145.01;100.00;64805.59;5051202;28;20071;-56
2022/09/28 08:37:08;;;;;;;0.80;0.80;;;;;;;-145.01;100.00;64805.59;5054957;28;20025;-55
2022/09/28 08:39:34;;;;;;;3.08;1.10;;;;;;;-145.01;100.00;64805.59;5046356;28;20035;-55
2022/09/28 08:42:15;;;;;;;3.00;1.20;;;;;;;-145.01;100.00;64805.59;5086511;28;20121;-55
2022/09/28 08:44:43;;;;;;;1.88;1.00;;;;;;;-145.01;100.00;64805.59;5046877;28;20462;-55
2022/09/28 08:50:20;;;;;;;1.50;1.05;;;;;;;-145.01;100.00;64805.59;5079611;28;20043;-55
2022/09/28 08:52:47;;;;;;;2.50;1.00;;;;;;;-145.01;100.00;64805.59;5081702;28;20475;-55
2022/09/28 08:55:14;;;;;;;1.63;1.20;;;;;;;-145.01;100.00;64805.59;5047104;28;20033;-56
2022/09/28 08:57:49;;;;;;;1.58;1.00;;;;;;;-145.01;100.00;64805.59;5047254;28;20116;-55
2022/09/28 09:00:39;;;;;;;1.67;1.20;;;;;;;-145.01;100.00;64805.59;5048117;28;20488;-55
2022/09/28 09:03:05;;;;;;;1.75;1.02;;;;;;;-145.01;100.00;64805.59;5071559;28;20048;-55
2022/09/28 09:05:51;;;;;;;1.90;1.20;;;;;;;-145.01;100.00;64805.59;5077460;28;20040;-56
2022/09/28 09:08:53;;;;;;;1.48;1.17;;;;;;;-145.01;100.00;64805.59;5033825;28;20469;-55
2022/09/28 09:11:38;;;;;;;2.17;1.05;;;;;;;-145.01;100.00;64805.59;5059981;28;20041;-55
2022/09/28 09:14:21;;;;;;;1.35;1.05;;;;;;;-145.01;100.00;64805.59;5051548;28;20032;-56
2022/09/28 09:16:58;;;;;;;2.63;1.30;;;;;;;-145.01;100.00;64805.59;5051150;28;20040;-55
2022/09/28 09:19:37;;;;;;;1.85;1.00;;;;;;;-145.01;100.00;64805.59;5056591;28;20032;-53
2022/09/28 09:22:10;;;;;;;3.17;1.15;;;;;;;-145.01;100.00;64805.59;5038703;28;20558;-55
2022/09/28 09:24:51;;;;;;;2.53;1.20;;;;;;;-145.01;100.00;64805.59;5057296;28;20041;-55
2022/09/28 09:27:26;;;;;;;1.15;1.02;;;;;;;-145.01;100.00;64805.59;5056378;28;20039;-55
2022/09/28 09:30:07;;;;;;;1.92;1.08;;;;;;;-145.01;100.00;64805.59;5050044;28;20044;-55
2022/09/28 09:32:35;;;;;;;1.17;0.90;;;;;;;-145.01;100.00;64805.59;5058148;28;20021;-54
2022/09/28 09:35:07;;;;;;;3.50;1.23;;;;;;;-145.01;100.00;64805.59;5057058;28;20044;-56
2022/09/28 09:37:49;;;;;;;3.42;1.08;;;;;;;-145.01;100.00;64805.59;5049204;28;20033;-56
2022/09/28 09:40:23;;;;;;;1.48;1.10;;;;;;;-145.01;100.00;64805.59;5056309;28;20029;-55
2022/09/28 09:43:04;;;;;;;1.45;1.10;;;;;;;-145.01;100.00;64805.59;5051452;28;20479;-55
2022/09/28 09:45:35;;;;;;;3.55;1.10;;;;;;;-145.01;100.00;64805.59;5045228;28;20111;-55
2022/09/28 09:48:32;;;;;;;1.00;0.98;;;;;;;-145.01;100.00;64805.59;5060431;28;20029;-54
2022/09/28 09:50:59;;;;;;;1.17;0.90;;;;;;;-145.01;100.00;64805.59;5039501;28;20042;-54
2022/09/28 09:53:41;;;;;;;2.45;0.98;;;;;;;-145.01;100.00;64805.59;5038986;28;20116;-55
2022/09/28 09:56:14;;;;;;;2.25;1.10;;;;;;;-145.01;100.00;64805.59;5066500;28;20017;-55
2022/09/28 09:59:01;;;;;;;2.88;0.95;;;;;;;-145.01;100.00;64805.59;5040132;28;20021;-55
2022/09/28 10:01:31;;;;;;;0.85;0.82;;;;;;;-145.01;100.00;64805.59;5054865;28;20071;-55
2022/09/28 10:03:57;;;;;;;1.48;0.90;;;;;;;-145.01;100.00;64805.59;5053295;28;20431;-55
2022/09/28 10:06:30;;;;;;;3.00;1.42;;;;;;;-145.01;100.00;64805.59;5052424;28;20041;-54
2022/09/28 10:09:28;;;;;;;2.22;0.95;;;;;;;-145.01;100.00;64805.59;5047832;28;20028;-55
2022/09/28 10:11:54;;;;;;;1.08;0.88;;;;;;;-145.01;100.00;64805.59;5054107;28;20044;-54
2022/09/28 10:14:23;;;;;;;1.20;1.10;;;;;;;-145.01;100.00;64805.59;5050255;28;20157;-54
2022/09/28 10:16:50;;;;;;;1.60;1.10;;;;;;;-145.01;100.00;64805.59;5051559;28;20025;-54
2022/09/28 10:19:16;;;;;;;1.27;1.10;;;;;;;-145.01;100.00;64805.59;5049942;28;20064;-55
2022/09/28 10:21:42;;;;;;;3.65;1.20;;;;;;;-145.01;100.00;64805.59;5052905;28;20035;-55
2022/09/28 10:24:15;;;;;;;2.85;1.30;;;;;;;-145.01;100.00;64805.59;5088434;28;20387;-55
2022/09/28 10:26:41;;;;;;;1.20;1.10;;;;;;;-145.01;100.00;64805.59;5056340;28;20021;-56
2022/09/28 10:29:25;;;;;;;1.45;1.30;;;;;;;-145.01;100.00;64805.59;5023609;28;20025;-54
2022/09/28 10:31:54;;;;;;;1.92;1.05;;;;;;;-145.01;100.00;64805.59;5049002;28;20040;-55
2022/09/28 10:34:27;;;;;;;2.53;1.30;;;;;;;-145.01;100.00;64805.59;5033088;28;20035;-54
2022/09/28 10:36:59;;;;;;;3.20;1.10;;;;;;;-145.01;100.00;64805.59;5053711;28;20029;-55
2022/09/28 10:39:52;;;;;;;3.33;1.50;;;;;;;-145.01;100.00;64805.59;5049110;28;20033;-54
2022/09/28 10:42:38;;;;;;;1.55;1.30;;;;;;;-145.01;100.00;64805.59;5050099;28;20479;-54
2022/09/28 10:45:18;;;;;;;2.47;1.60;;;;;;;-145.01;100.00;64805.59;5085875;28;20435;-55
2022/09/28 10:47:43;;;;;;;;;;;;;;;-145.01;100.00;64805.59;5050118;28;20029;-55
2022/09/28 10:50:25;;;;;;;1.67;1.20;;;;;;;-145.01;100.00;64805.59;5059525;28;19920;-57
2022/09/28 10:52:51;;;;;;;1.73;1.42;;;;;;;-145.01;100.00;64805.59;5058739;28;20458;-54
2022/09/28 10:55:19;;;;;;;2.15;1.05;;;;;;;-145.01;100.00;64805.59;5049981;28;20025;-57
2022/09/28 10:57:45;;;;;;;3.55;1.00;;;;;;;-145.01;100.00;64805.59;5050426;28;20045;-55
2022/09/28 11:00:38;;;;;;;2.15;1.20;;;;;;;-145.01;100.00;64805.59;5052211;28;20037;-54
2022/09/28 11:03:03;;;;;;;2.33;1.30;;;;;;;-145.01;100.00;64805.59;5053649;28;20021;-54
2022/09/28 11:05:29;;;;;;;3.42;0.98;;;;;;;-145.01;100.00;64805.59;5055855;28;20503;-57
2022/09/28 11:07:56;;;;;;;2.42;1.52;;;;;;;-145.01;100.00;64805.59;5055159;28;20029;-54
2022/09/28 11:10:23;;;;;;;2.72;1.25;;;;;;;-145.01;100.00;64805.59;5058407;28;20163;-54
2022/09/28 11:12:49;;;;;;;2.20;1.10;;;;;;;-145.01;100.00;64805.59;5038170;28;20067;-54
2022/09/28 11:15:19;;;;;;;2.58;1.17;;;;;;;-145.01;100.00;64805.59;5052453;28;20028;-55
2022/09/28 11:17:45;;;;;;;0.98;0.90;;;;;;;-145.01;100.00;64805.59;5055524;28;20021;-56
2022/09/28 11:20:23;;;;;;;2.15;1.13;;;;;;;-145.01;100.00;64805.59;5055271;28;20048;-55
2022/09/28 11:22:52;;;;;;;0.82;0.82;;;;;;;-145.01;100.00;64805.59;5050338;28;20498;-55
2022/09/28 11:25:26;;;;;;;5.28;2.10;;;;;;;-145.01;100.00;64805.59;5053138;28;20490;-56
2022/09/28 11:27:51;;;;;;;3.22;2.15;;;;;;;-145.01;100.00;64805.59;5058296;28;20038;-56
2022/09/28 11:30:32;;;;;;;3.33;2.05;;;;;;;-145.01;100.00;64805.59;5049864;28;20115;-55